Time;durP1;ratioP1;P1;durP2;ratioP2;P2;SDS_P1;SDS_P2;PMS_P1;PMS_P2;Temp;Humidity;BMP_temperature;BMP_pressure;BME280_temperature;BME280_humidity;BME280_pressure;Samples;Min_cycle;Max_cycle;Signal;HPM_P1;HPM_P2
2022/07/06 00:01:50;;;;;;;3.45;3.05;;;17.80;99.90;;;;;;5208852;28;20372;-75
2022/07/06 00:04:21;;;;;;;7.30;4.18;;;17.80;99.90;;;;;;5208727;28;20408;-76
2022/07/06 00:06:52;;;;;;;5.50;3.58;;;17.60;99.90;;;;;;5208350;28;20033;-72
2022/07/06 00:09:24;;;;;;;7.75;3.63;;;17.60;99.90;;;;;;5208480;28;20495;-71
2022/07/06 00:11:54;;;;;;;6.35;3.72;;;17.60;99.90;;;;;;5208486;28;20109;-72
2022/07/06 00:14:25;;;;;;;6.15;3.15;;;17.70;99.90;;;;;;5208577;28;20127;-71
2022/07/06 00:16:56;;;;;;;5.30;2.92;;;17.70;99.90;;;;;;5208352;28;20112;-76
2022/07/06 00:19:27;;;;;;;5.93;3.15;;;17.40;99.90;;;;;;5207989;28;20136;-76
2022/07/06 00:21:58;;;;;;;8.30;3.20;;;17.70;99.90;;;;;;5208399;28;20028;-72
2022/07/06 00:24:29;;;;;;;6.00;3.38;;;17.60;99.90;;;;;;5208257;28;20014;-71
2022/07/06 00:27:00;;;;;;;3.92;2.83;;;17.70;99.90;;;;;;5208190;28;20433;-77
2022/07/06 00:29:32;;;;;;;4.13;3.10;;;17.80;99.90;;;;;;5208134;28;20034;-71
2022/07/06 00:32:03;;;;;;;4.57;2.85;;;17.60;99.90;;;;;;5208260;28;20049;-75
2022/07/06 00:34:35;;;;;;;4.03;3.22;;;17.60;99.90;;;;;;5208056;28;20040;-75
2022/07/06 00:37:06;;;;;;;4.70;3.00;;;17.70;99.90;;;;;;5207912;28;20009;-76
2022/07/06 00:39:37;;;;;;;3.78;3.08;;;17.70;99.90;;;;;;5208055;28;20595;-75
2022/07/06 00:42:08;;;;;;;6.72;3.65;;;17.70;99.90;;;;;;5207883;28;20030;-72
2022/07/06 00:44:39;;;;;;;7.75;3.63;;;17.60;99.90;;;;;;5207910;28;20090;-71
2022/07/06 00:47:10;;;;;;;6.45;4.13;;;17.80;99.90;;;;;;5207833;28;20573;-72
2022/07/06 00:52:30;;;;;;;6.22;3.60;;;17.70;99.90;;;;;;5207514;28;20072;-71
2022/07/06 00:55:02;;;;;;;6.72;3.67;;;17.90;99.90;;;;;;5207714;28;20029;-75
2022/07/06 00:57:33;;;;;;;6.50;3.70;;;17.70;99.90;;;;;;5207711;28;20424;-76
2022/07/06 01:00:06;;;;;;;6.25;3.50;;;17.80;99.90;;;;;;5207536;28;20021;-71
2022/07/06 01:02:37;;;;;;;4.95;3.75;;;17.30;99.90;;;;;;5207635;28;20061;-74
2022/07/06 01:05:11;;;;;;;6.68;3.88;;;17.60;99.90;;;;;;5207453;28;20068;-72
2022/07/06 01:07:44;;;;;;;6.03;3.78;;;17.40;99.90;;;;;;5207376;28;20045;-71
2022/07/06 01:10:17;;;;;;;4.75;3.65;;;17.10;99.90;;;;;;5207376;28;20029;-75
2022/07/06 01:12:49;;;;;;;4.50;3.05;;;17.20;99.90;;;;;;5207357;28;20076;-75
2022/07/06 01:15:22;;;;;;;5.10;3.30;;;17.10;99.90;;;;;;5207425;28;20079;-73
2022/07/06 01:17:53;;;;;;;4.97;3.42;;;17.40;99.90;;;;;;5207306;28;20029;-76
2022/07/06 01:20:26;;;;;;;5.15;3.30;;;17.10;99.90;;;;;;5206909;28;20073;-71
2022/07/06 01:22:59;;;;;;;5.85;3.47;;;17.10;99.90;;;;;;5207233;28;20372;-71
2022/07/06 01:25:30;;;;;;;4.43;3.40;;;16.90;99.90;;;;;;5207208;28;20026;-75
2022/07/06 01:28:02;;;;;;;4.22;3.50;;;17.00;99.90;;;;;;5207154;28;20033;-75
2022/07/06 01:30:33;;;;;;;5.55;2.75;;;17.20;99.90;;;;;;5207135;28;20064;-71
2022/07/06 01:33:04;;;;;;;3.00;2.70;;;17.10;99.90;;;;;;5207166;28;20028;-71
2022/07/06 01:35:37;;;;;;;5.50;3.03;;;17.10;99.90;;;;;;5207027;28;20030;-71
2022/07/06 01:38:08;;;;;;;3.42;3.10;;;17.00;99.90;;;;;;5207067;28;20108;-71
2022/07/06 01:40:39;;;;;;;5.55;3.40;;;16.90;99.90;;;;;;5207077;28;20522;-71
2022/07/06 01:43:10;;;;;;;4.20;3.60;;;17.00;99.90;;;;;;5206968;28;20053;-71
2022/07/06 01:45:41;;;;;;;4.93;3.50;;;17.00;99.90;;;;;;5206789;28;20033;-76
2022/07/06 01:48:11;;;;;;;5.68;3.92;;;17.10;99.90;;;;;;5206874;28;20033;-76
2022/07/06 01:50:42;;;;;;;5.32;3.30;;;16.80;99.90;;;;;;5206640;28;20109;-75
2022/07/06 01:53:13;;;;;;;6.47;3.97;;;16.90;99.90;;;;;;5206874;28;20029;-73
2022/07/06 01:55:44;;;;;;;7.13;3.92;;;16.90;99.90;;;;;;5206858;28;20072;-72
2022/07/06 01:58:15;;;;;;;5.50;3.75;;;17.00;99.90;;;;;;5206804;28;20025;-75
2022/07/06 02:00:46;;;;;;;4.78;3.50;;;16.90;99.90;;;;;;5206963;28;20037;-75
2022/07/06 02:03:17;;;;;;;4.00;3.58;;;16.90;99.90;;;;;;5206796;28;20079;-75
2022/07/06 02:05:48;;;;;;;4.72;3.63;;;16.90;99.90;;;;;;5210946;28;20021;-72
2022/07/06 02:08:18;;;;;;;5.32;3.75;;;16.90;99.90;;;;;;5210951;28;20034;-75
2022/07/06 02:10:49;;;;;;;5.70;3.95;;;16.80;99.90;;;;;;5210847;28;20064;-76
2022/07/06 02:13:20;;;;;;;5.95;4.10;;;16.80;99.90;;;;;;5210854;28;20024;-75
2022/07/06 02:15:51;;;;;;;8.10;4.35;;;16.80;99.90;;;;;;5210820;28;20049;-76
2022/07/06 02:18:22;;;;;;;5.05;4.55;;;16.90;99.90;;;;;;5210434;28;20025;-74
2022/07/06 02:20:53;;;;;;;7.38;4.43;;;16.80;99.90;;;;;;5210538;28;20542;-72
2022/07/06 02:23:25;;;;;;;5.82;4.07;;;16.80;99.90;;;;;;5210654;28;20029;-71
2022/07/06 02:25:56;;;;;;;7.18;4.72;;;17.00;99.90;;;;;;5210598;28;20033;-72
2022/07/06 02:28:27;;;;;;;5.43;4.00;;;16.80;99.90;;;;;;5210387;28;20033;-72
2022/07/06 02:30:58;;;;;;;8.43;4.70;;;16.80;99.90;;;;;;5210487;28;20018;-71
2022/07/06 02:33:29;;;;;;;5.78;4.22;;;16.90;99.90;;;;;;5210627;28;20084;-71
2022/07/06 02:36:00;;;;;;;7.72;4.07;;;16.70;99.90;;;;;;5210404;28;20052;-75
2022/07/06 02:38:31;;;;;;;4.60;4.15;;;16.80;99.90;;;;;;5210546;28;20033;-75
2022/07/06 02:41:01;;;;;;;7.43;4.30;;;16.70;99.90;;;;;;5210151;28;20022;-75
2022/07/06 02:43:32;;;;;;;7.57;4.10;;;16.90;99.90;;;;;;5210356;28;20030;-75
2022/07/06 02:46:03;;;;;;;6.90;4.90;;;16.80;99.90;;;;;;5210207;28;20021;-72
2022/07/06 02:48:34;;;;;;;4.18;3.78;;;16.80;99.90;;;;;;5209850;28;20480;-75
2022/07/06 02:51:05;;;;;;;5.38;4.30;;;16.60;99.90;;;;;;5210152;28;20022;-71
2022/07/06 02:53:36;;;;;;;6.63;4.35;;;16.80;99.90;;;;;;5210165;28;20072;-71
2022/07/06 02:56:07;;;;;;;4.90;4.40;;;16.70;99.90;;;;;;5210086;28;20036;-76
2022/07/06 02:58:38;;;;;;;5.10;4.28;;;16.80;99.90;;;;;;5210089;28;20053;-71
2022/07/06 03:01:08;;;;;;;9.38;4.60;;;16.50;99.90;;;;;;5209878;28;20376;-75
2022/07/06 03:03:39;;;;;;;10.10;5.15;;;16.50;99.90;;;;;;5209917;28;20026;-71
2022/07/06 03:06:10;;;;;;;5.78;4.78;;;16.60;99.90;;;;;;5209801;28;20065;-75
2022/07/06 03:08:41;;;;;;;4.82;4.07;;;16.80;99.90;;;;;;5209855;28;20029;-71
2022/07/06 03:11:12;;;;;;;6.20;4.78;;;16.70;99.90;;;;;;5209776;28;20537;-72
2022/07/06 03:13:43;;;;;;;5.10;4.60;;;16.70;99.90;;;;;;5208477;28;20026;-71
2022/07/06 03:16:13;;;;;;;6.00;4.50;;;16.50;99.90;;;;;;5209095;28;20029;-74
2022/07/06 03:18:44;;;;;;;6.30;4.45;;;16.70;99.90;;;;;;5209515;28;20061;-71
2022/07/06 03:21:15;;;;;;;6.20;4.78;;;16.60;99.90;;;;;;5209348;28;20432;-75
2022/07/06 03:23:46;;;;;;;6.38;3.50;;;16.90;99.90;;;;;;5209528;28;20037;-75
2022/07/06 03:26:17;;;;;;;5.90;4.63;;;17.00;99.90;;;;;;5209484;28;20044;-75
2022/07/06 03:28:48;;;;;;;5.70;4.38;;;16.70;99.90;;;;;;5209366;28;20033;-75
2022/07/06 03:31:19;;;;;;;7.03;4.35;;;16.80;99.90;;;;;;5209434;28;20525;-71
2022/07/06 03:33:50;;;;;;;8.70;4.13;;;17.00;99.90;;;;;;5209289;28;20060;-73
2022/07/06 03:36:21;;;;;;;5.88;4.43;;;17.10;99.90;;;;;;5209328;28;20021;-72
2022/07/06 03:38:53;;;;;;;5.55;4.40;;;17.20;99.90;;;;;;5209347;28;20032;-71
2022/07/06 03:41:24;;;;;;;5.25;4.15;;;16.80;99.90;;;;;;5209381;28;20033;-71
2022/07/06 03:43:55;;;;;;;5.53;4.13;;;17.10;99.90;;;;;;5209192;28;20049;-71
2022/07/06 03:46:26;;;;;;;5.57;4.00;;;17.10;99.90;;;;;;5208921;28;20353;-76
2022/07/06 03:48:56;;;;;;;4.45;4.05;;;17.00;99.90;;;;;;5208542;28;20034;-71
2022/07/06 03:51:27;;;;;;;4.40;4.00;;;17.00;99.90;;;;;;5209002;28;20417;-75
2022/07/06 03:53:58;;;;;;;5.53;4.63;;;17.00;99.90;;;;;;5208787;28;20056;-75
2022/07/06 03:56:29;;;;;;;7.93;4.45;;;17.10;99.90;;;;;;5208810;28;20037;-76
2022/07/06 03:59:02;;;;;;;6.25;4.25;;;17.20;99.90;;;;;;5208861;28;20672;-71
2022/07/06 04:01:33;;;;;;;6.85;4.07;;;17.40;99.90;;;;;;5208842;28;20025;-76
2022/07/06 04:04:04;;;;;;;5.53;4.70;;;17.30;99.90;;;;;;5208865;28;20349;-75
2022/07/06 04:06:35;;;;;;;6.00;4.35;;;17.30;99.90;;;;;;5208673;28;20469;-75
2022/07/06 04:09:06;;;;;;;5.40;4.50;;;17.60;99.90;;;;;;5208441;28;20116;-72
2022/07/06 04:11:37;;;;;;;5.35;4.25;;;17.60;99.90;;;;;;5208611;28;20036;-75
2022/07/06 04:14:08;;;;;;;4.93;4.28;;;17.80;99.90;;;;;;5208608;28;20095;-75
2022/07/06 04:16:38;;;;;;;5.40;4.07;;;17.80;99.90;;;;;;5208416;28;20036;-76
2022/07/06 04:19:09;;;;;;;5.00;4.10;;;17.80;99.90;;;;;;5208020;28;20057;-74
2022/07/06 04:21:40;;;;;;;6.18;4.15;;;18.00;99.90;;;;;;5208506;28;20038;-71
2022/07/06 04:24:11;;;;;;;6.70;4.50;;;18.20;99.90;;;;;;5208301;28;20354;-76
2022/07/06 04:26:42;;;;;;;7.15;4.45;;;18.40;99.90;;;;;;5208124;28;20037;-76
2022/07/06 04:29:13;;;;;;;5.30;4.20;;;18.40;99.90;;;;;;5207617;28;20039;-72
2022/07/06 04:31:44;;;;;;;4.20;3.80;;;18.50;99.90;;;;;;5208279;28;20112;-75
2022/07/06 04:34:15;;;;;;;4.65;4.15;;;18.40;99.90;;;;;;5208170;28;20044;-72
2022/07/06 04:36:45;;;;;;;4.20;3.80;;;18.50;99.90;;;;;;5208155;28;20424;-71
2022/07/06 04:39:16;;;;;;;5.45;4.25;;;18.60;99.90;;;;;;5208078;28;20383;-71
2022/07/06 04:41:47;;;;;;;8.65;4.30;;;18.60;99.90;;;;;;5208064;28;20025;-73
2022/07/06 04:44:18;;;;;;;5.93;4.05;;;18.90;99.90;;;;;;5209139;28;20085;-72
2022/07/06 04:46:49;;;;;;;12.73;4.68;;;19.10;99.90;;;;;;5207972;28;20113;-76
2022/07/06 04:49:20;;;;;;;6.60;4.22;;;19.20;99.90;;;;;;5207645;28;20528;-72
2022/07/06 04:51:50;;;;;;;8.52;4.60;;;19.50;99.90;;;;;;5207670;28;20449;-72
2022/07/06 04:54:21;;;;;;;5.32;4.47;;;20.00;99.90;;;;;;5207821;28;20477;-75
2022/07/06 04:56:52;;;;;;;6.65;4.63;;;20.20;99.90;;;;;;5207695;28;20030;-75
2022/07/06 04:59:23;;;;;;;9.48;4.60;;;20.80;99.90;;;;;;5207703;28;20506;-72
2022/07/06 05:01:54;;;;;;;5.35;4.30;;;21.00;99.90;;;;;;5207755;28;20025;-76
2022/07/06 05:04:25;;;;;;;10.55;4.68;;;21.40;99.90;;;;;;5207697;28;20108;-75
2022/07/06 05:06:56;;;;;;;7.35;4.68;;;21.60;99.90;;;;;;5207407;28;20033;-72
2022/07/06 05:09:26;;;;;;;6.82;4.03;;;21.80;99.90;;;;;;5207338;28;20544;-73
2022/07/06 05:11:57;;;;;;;8.23;4.30;;;21.70;99.90;;;;;;5206266;28;20032;-72
2022/07/06 05:14:28;;;;;;;7.00;4.10;;;21.90;99.90;;;;;;5207431;28;20030;-76
2022/07/06 05:16:59;;;;;;;10.07;3.95;;;22.00;99.90;;;;;;5207248;28;20017;-72
2022/07/06 05:19:30;;;;;;;7.22;3.45;;;22.30;99.90;;;;;;5206968;28;20049;-76
2022/07/06 05:22:01;;;;;;;7.05;3.85;;;22.40;99.90;;;;;;5207387;28;20053;-72
2022/07/06 05:24:32;;;;;;;10.35;3.60;;;22.60;99.90;;;;;;5207280;28;20029;-76
2022/07/06 05:27:03;;;;;;;8.25;3.75;;;22.70;99.90;;;;;;5207182;28;20021;-76
2022/07/06 05:29:34;;;;;;;8.13;3.67;;;22.70;99.90;;;;;;5207009;28;20033;-76
2022/07/06 05:32:05;;;;;;;6.05;3.72;;;22.80;99.90;;;;;;5207047;28;20032;-76
2022/07/06 05:34:37;;;;;;;6.72;3.50;;;22.80;99.90;;;;;;5207104;28;20080;-76
2022/07/06 05:37:08;;;;;;;6.55;3.50;;;22.80;99.90;;;;;;5206875;28;20163;-73
2022/07/06 05:39:43;;;;;;;5.13;3.33;;;22.70;99.90;;;;;;5206791;28;20474;-72
2022/07/06 05:42:14;;;;;;;8.77;3.20;;;22.90;99.90;;;;;;5206946;28;20022;-72
2022/07/06 05:44:45;;;;;;;10.52;3.90;;;23.00;99.90;;;;;;5207126;28;20373;-73
2022/07/06 05:50:11;;;;;;;7.57;3.40;;;23.20;99.90;;;;;;5207470;28;20087;-72
2022/07/06 05:52:45;;;;;;;12.75;3.83;;;23.20;99.90;;;;;;5207077;28;20373;-76
2022/07/06 05:55:15;;;;;;;8.63;3.92;;;23.10;99.90;;;;;;5206834;28;20051;-72
2022/07/06 05:57:46;;;;;;;7.18;3.10;;;23.10;99.90;;;;;;5206959;28;20022;-76
2022/07/06 06:00:19;;;;;;;8.23;3.38;;;23.20;99.90;;;;;;5206794;28;20053;-72
2022/07/06 06:02:51;;;;;;;13.63;3.53;;;23.30;99.90;;;;;;5206882;28;20033;-76
2022/07/06 06:05:22;;;;;;;10.38;3.20;;;23.40;99.90;;;;;;5206735;28;20056;-76
2022/07/06 06:07:53;;;;;;;6.00;3.30;;;23.70;99.90;;;;;;5206805;28;20067;-76
2022/07/06 06:10:25;;;;;;;6.97;2.83;;;23.90;99.90;;;;;;5206658;28;20041;-76
2022/07/06 06:12:55;;;;;;;7.65;2.78;;;24.50;99.90;;;;;;5206612;28;20511;-72
2022/07/06 06:15:26;;;;;;;6.47;2.83;;;24.40;99.90;;;;;;5206637;28;20026;-76
2022/07/06 06:17:57;;;;;;;3.45;2.58;;;24.20;99.90;;;;;;5206564;28;20057;-72
2022/07/06 06:20:28;;;;;;;10.48;2.58;;;24.30;99.90;;;;;;5206352;28;20050;-76
2022/07/06 06:23:00;;;;;;;7.22;2.67;;;24.40;99.90;;;;;;5206506;28;20486;-76
2022/07/06 06:25:36;;;;;;;6.05;2.83;;;24.40;99.90;;;;;;5206551;28;20076;-76
2022/07/06 06:28:09;;;;;;;5.47;2.20;;;24.30;99.90;;;;;;5206498;28;20029;-75
2022/07/06 06:30:40;;;;;;;4.95;2.92;;;24.30;99.90;;;;;;5206430;28;20030;-72
2022/07/06 06:33:12;;;;;;;6.05;2.55;;;24.20;99.90;;;;;;5206420;28;20522;-75
2022/07/06 06:35:45;;;;;;;6.72;2.65;;;24.20;99.90;;;;;;5206556;28;20037;-77
2022/07/06 06:38:17;;;;;;;3.83;2.28;;;24.30;99.90;;;;;;5206605;28;20041;-72
2022/07/06 06:40:48;;;;;;;6.28;2.83;;;24.30;99.90;;;;;;5206447;28;20030;-73
2022/07/06 06:43:19;;;;;;;3.67;2.63;;;24.20;99.90;;;;;;5206446;28;20476;-77
2022/07/06 06:45:49;;;;;;;4.53;2.58;;;24.50;99.90;;;;;;5206417;28;20080;-74
2022/07/06 06:48:20;;;;;;;7.05;2.28;;;24.50;99.90;;;;;;5206077;28;20061;-75
2022/07/06 06:50:51;;;;;;;5.32;2.58;;;25.00;99.90;;;;;;5207009;28;20079;-72
2022/07/06 06:53:22;;;;;;;2.90;2.42;;;24.90;99.90;;;;;;5210077;28;20099;-76
2022/07/06 06:55:53;;;;;;;4.85;2.50;;;25.30;99.90;;;;;;5208740;28;20025;-77
2022/07/06 06:58:23;;;;;;;6.68;2.40;;;25.30;99.90;;;;;;5210057;28;20026;-76
2022/07/06 07:00:55;;;;;;;4.35;2.63;;;25.30;99.90;;;;;;5209944;28;20473;-76
2022/07/06 07:03:25;;;;;;;6.55;2.42;;;25.30;99.90;;;;;;5210051;28;20032;-72
2022/07/06 07:05:56;;;;;;;8.18;2.60;;;25.40;99.90;;;;;;5209911;28;20376;-77
2022/07/06 07:08:27;;;;;;;7.68;2.90;;;25.10;99.90;;;;;;5209762;28;20083;-73
2022/07/06 07:10:58;;;;;;;4.93;2.78;;;25.10;99.90;;;;;;5209939;28;20372;-77
2022/07/06 07:13:29;;;;;;;9.43;3.00;;;25.70;99.90;;;;;;5209666;28;20029;-75
2022/07/06 07:16:00;;;;;;;5.65;2.53;;;25.80;99.90;;;;;;5209719;28;20105;-73
2022/07/06 07:18:31;;;;;;;8.27;2.70;;;25.70;99.90;;;;;;5209495;28;20071;-76
2022/07/06 07:21:02;;;;;;;5.03;2.70;;;26.00;99.90;;;;;;5209382;28;20050;-76
2022/07/06 07:23:33;;;;;;;3.78;2.58;;;25.70;99.90;;;;;;5209559;28;20061;-76
2022/07/06 07:26:04;;;;;;;6.05;2.70;;;25.70;99.90;;;;;;5209515;28;20501;-73
2022/07/06 07:28:34;;;;;;;8.40;2.50;;;25.60;99.90;;;;;;5209413;28;20116;-76
2022/07/06 07:31:05;;;;;;;5.90;2.00;;;26.00;99.90;;;;;;5209527;28;20025;-72
2022/07/06 07:33:36;;;;;;;9.35;2.60;;;26.20;99.90;;;;;;5209409;28;20014;-76
2022/07/06 07:36:07;;;;;;;5.60;2.35;;;26.70;99.90;;;;;;5208221;28;20025;-78
2022/07/06 07:38:38;;;;;;;11.63;2.83;;;26.90;99.90;;;;;;5209430;28;20010;-77
2022/07/06 07:41:11;;;;;;;4.82;2.38;;;27.10;99.90;;;;;;5209378;28;20119;-76
2022/07/06 07:43:42;;;;;;;7.70;2.40;;;26.80;99.90;;;;;;5209184;28;20067;-76
2022/07/06 07:46:13;;;;;;;3.88;2.30;;;26.70;99.90;;;;;;5209053;28;20021;-77
2022/07/06 07:48:43;;;;;;;5.63;2.85;;;26.80;99.90;;;;;;5208687;28;20118;-74
2022/07/06 07:51:14;;;;;;;11.38;2.72;;;26.90;99.90;;;;;;5209202;28;20508;-75
2022/07/06 07:53:46;;;;;;;5.00;2.40;;;27.10;99.90;;;;;;5208950;28;20361;-76
2022/07/06 07:56:16;;;;;;;8.07;2.63;;;27.10;99.90;;;;;;5208947;28;20037;-72
2022/07/06 07:58:48;;;;;;;5.28;2.42;;;26.90;99.90;;;;;;5209028;28;20022;-77
2022/07/06 08:01:19;;;;;;;5.50;2.58;;;27.10;99.90;;;;;;5208602;28;20018;-72
2022/07/06 08:03:50;;;;;;;6.45;2.83;;;27.20;99.90;;;;;;5208919;28;20092;-72
2022/07/06 08:06:21;;;;;;;5.13;2.85;;;26.50;99.90;;;;;;5208495;28;20386;-77
2022/07/06 08:08:51;;;;;;;6.10;2.97;;;26.80;99.90;;;;;;5208503;28;20556;-77
2022/07/06 08:11:22;;;;;;;4.53;2.88;;;26.80;99.90;;;;;;5208619;28;20033;-75
2022/07/06 08:13:53;;;;;;;7.60;2.88;;;27.00;99.90;;;;;;5208530;28;20029;-73
2022/07/06 08:16:24;;;;;;;7.50;2.90;;;27.10;99.90;;;;;;5208481;28;20127;-73
2022/07/06 08:18:55;;;;;;;4.28;2.67;;;27.00;99.90;;;;;;5208191;28;20083;-74
2022/07/06 08:21:26;;;;;;;8.40;2.70;;;27.00;99.90;;;;;;5208589;28;20030;-76
2022/07/06 08:23:59;;;;;;;6.93;2.63;;;26.80;99.90;;;;;;5208335;28;20029;-76
2022/07/06 08:26:30;;;;;;;6.28;2.70;;;27.20;99.90;;;;;;5208444;28;20030;-72
2022/07/06 08:29:01;;;;;;;6.88;2.72;;;27.10;99.90;;;;;;5208180;28;20045;-76
2022/07/06 08:31:34;;;;;;;5.20;2.72;;;27.30;99.90;;;;;;5208176;28;20029;-78
2022/07/06 08:34:05;;;;;;;9.25;2.55;;;27.40;99.90;;;;;;5208123;28;20108;-76
2022/07/06 08:36:36;;;;;;;5.38;2.40;;;27.10;99.90;;;;;;5208101;28;20544;-76
2022/07/06 08:39:07;;;;;;;12.32;2.97;;;27.20;99.90;;;;;;5208167;28;20431;-72
2022/07/06 08:41:42;;;;;;;12.63;2.72;;;27.50;99.90;;;;;;5207968;28;20485;-77
2022/07/06 08:44:14;;;;;;;5.88;2.60;;;27.60;99.90;;;;;;5207872;28;20030;-76
2022/07/06 08:46:45;;;;;;;5.93;2.60;;;27.60;99.90;;;;;;5207920;28;20029;-77
2022/07/06 08:49:18;;;;;;;6.22;2.65;;;27.00;99.90;;;;;;5207732;28;20045;-73
2022/07/06 08:51:50;;;;;;;5.45;2.28;;;27.60;99.90;;;;;;5207815;28;20429;-78
2022/07/06 08:54:22;;;;;;;9.38;2.38;;;27.30;99.90;;;;;;5207836;28;20468;-76
2022/07/06 08:56:53;;;;;;;5.63;2.25;;;27.90;99.90;;;;;;5207720;28;20401;-73
2022/07/06 08:59:24;;;;;;;9.50;3.03;;;27.30;99.90;;;;;;5207795;28;20029;-76
2022/07/06 09:01:55;;;;;;;6.65;2.50;;;27.60;99.90;;;;;;5207822;28;20080;-72
2022/07/06 09:04:26;;;;;;;12.80;2.58;;;28.00;99.90;;;;;;5207678;28;20044;-73
2022/07/06 09:06:57;;;;;;;9.07;2.67;;;27.50;99.90;;;;;;5207464;28;20459;-73
2022/07/06 09:09:32;;;;;;;8.45;2.65;;;27.70;99.90;;;;;;5207464;28;20044;-72
2022/07/06 09:12:04;;;;;;;4.90;2.35;;;28.30;99.90;;;;;;5207511;28;20025;-77
2022/07/06 09:14:35;;;;;;;4.88;2.70;;;28.20;99.90;;;;;;5205723;28;20036;-77
2022/07/06 09:17:06;;;;;;;6.22;2.30;;;28.40;99.90;;;;;;5207408;28;20013;-78
2022/07/06 09:19:37;;;;;;;6.47;2.60;;;28.70;99.90;;;;;;5206968;28;20144;-73
2022/07/06 09:22:08;;;;;;;4.25;2.33;;;28.90;99.90;;;;;;5207287;28;20117;-75
2022/07/06 09:24:42;;;;;;;5.10;2.35;;;28.60;99.90;;;;;;5207107;28;20033;-73
2022/07/06 09:27:17;;;;;;;8.48;2.70;;;28.80;99.90;;;;;;5207215;28;20026;-76
2022/07/06 09:29:48;;;;;;;7.95;2.13;;;28.60;99.90;;;;;;5207202;28;20472;-74
2022/07/06 09:32:21;;;;;;;5.55;2.60;;;28.40;99.90;;;;;;5207113;28;20032;-73
2022/07/06 09:34:52;;;;;;;6.28;2.67;;;27.80;99.90;;;;;;5207303;28;20112;-78
2022/07/06 09:37:23;;;;;;;6.63;2.30;;;27.70;99.90;;;;;;5207031;28;20121;-78
2022/07/06 09:39:54;;;;;;;4.78;2.30;;;28.40;99.90;;;;;;5207064;28;20053;-77
2022/07/06 09:42:26;;;;;;;4.65;2.13;;;28.50;99.90;;;;;;5207060;28;20053;-78
2022/07/06 09:44:57;;;;;;;6.43;2.42;;;28.40;99.90;;;;;;5207059;28;20026;-78
2022/07/06 09:47:28;;;;;;;7.65;2.60;;;28.40;99.90;;;;;;5206970;28;20457;-77
2022/07/06 09:50:00;;;;;;;6.00;2.38;;;28.70;99.90;;;;;;5206673;28;20443;-73
2022/07/06 09:52:34;;;;;;;7.82;2.45;;;28.50;99.90;;;;;;5206886;28;20457;-72
2022/07/06 09:55:17;;;;;;;9.13;2.40;;;28.80;99.90;;;;;;5206989;28;20045;-76
2022/07/06 09:57:57;;;;;;;3.97;2.30;;;28.90;99.90;;;;;;5207004;28;20025;-77
2022/07/06 10:00:28;;;;;;;6.47;2.05;;;28.40;99.90;;;;;;5206887;28;20029;-79
2022/07/06 10:03:00;;;;;;;5.20;1.98;;;28.60;99.90;;;;;;5206992;28;20022;-73
2022/07/06 10:05:32;;;;;;;4.78;2.10;;;28.30;99.90;;;;;;5206608;28;20029;-73
2022/07/06 10:08:05;;;;;;;3.55;2.30;;;28.50;99.90;;;;;;5206823;28;20364;-72
2022/07/06 10:10:39;;;;;;;3.15;2.10;;;28.60;99.90;;;;;;5206703;28;20415;-78
2022/07/06 10:13:10;;;;;;;5.85;2.40;;;28.70;99.90;;;;;;5206609;28;20018;-76
2022/07/06 10:15:41;;;;;;;3.65;2.00;;;28.50;99.90;;;;;;5206557;28;20079;-75
2022/07/06 10:18:12;;;;;;;5.18;2.10;;;28.30;99.90;;;;;;5206501;28;20457;-77
2022/07/06 10:20:43;;;;;;;8.48;2.10;;;28.30;99.90;;;;;;5206253;28;20104;-77
2022/07/06 10:23:15;;;;;;;5.00;2.42;;;28.40;99.90;;;;;;5206581;28;20049;-77
2022/07/06 10:25:47;;;;;;;7.90;2.30;;;28.70;99.90;;;;;;5208944;28;20022;-72
2022/07/06 10:28:20;;;;;;;4.35;2.00;;;28.80;99.90;;;;;;5210533;28;20477;-74
2022/07/06 10:30:51;;;;;;;6.30;1.98;;;29.20;99.90;;;;;;5210745;28;20369;-77
2022/07/06 10:33:23;;;;;;;3.85;2.13;;;29.00;99.90;;;;;;5210531;28;20993;-73
2022/07/06 10:35:55;;;;;;;6.72;1.95;;;28.90;99.90;;;;;;5210436;28;20075;-78
2022/07/06 10:38:33;;;;;;;3.15;2.10;;;28.80;99.90;;;;;;5210466;28;20021;-74
2022/07/06 10:41:09;;;;;;;5.75;2.20;;;28.70;99.90;;;;;;5210390;28;20029;-74
2022/07/06 10:43:46;;;;;;;8.35;2.25;;;28.40;99.90;;;;;;5210291;28;20022;-77
2022/07/06 10:46:19;;;;;;;6.05;2.10;;;28.60;99.90;;;;;;5210316;28;20112;-77
2022/07/06 10:48:51;;;;;;;6.75;2.22;;;28.70;99.90;;;;;;5209904;28;20030;-78
2022/07/06 10:51:32;;;;;;;7.40;2.55;;;28.70;99.90;;;;;;5210146;28;20116;-72
2022/07/06 10:54:07;;;;;;;9.40;3.38;;;29.10;99.90;;;;;;5210130;28;20028;-74
2022/07/06 10:56:42;;;;;;;8.10;2.90;;;29.00;99.90;;;;;;5210186;28;20017;-72
2022/07/06 10:59:23;;;;;;;5.63;2.47;;;29.00;99.90;;;;;;5210152;28;20028;-77
2022/07/06 11:02:16;;;;;;;7.40;2.70;;;29.50;99.90;;;;;;5210083;28;20430;-73
2022/07/06 11:04:48;;;;;;;8.88;2.45;;;28.80;99.90;;;;;;5210101;28;20091;-78
2022/07/06 11:07:20;;;;;;;2.92;2.20;;;29.00;99.90;;;;;;5209825;28;20071;-72
2022/07/06 11:09:56;;;;;;;4.75;1.98;;;29.10;99.90;;;;;;5209661;28;20048;-78
2022/07/06 11:12:27;;;;;;;6.85;2.33;;;29.30;99.90;;;;;;5209856;28;20029;-78
2022/07/06 11:15:01;;;;;;;3.78;2.13;;;29.80;99.90;;;;;;5209881;28;20456;-72
2022/07/06 11:17:32;;;;;;;5.00;2.03;;;29.00;99.90;;;;;;5209739;28;20014;-77
2022/07/06 11:20:11;;;;;;;4.82;2.00;;;29.00;99.90;;;;;;5209331;28;20060;-78
2022/07/06 11:22:43;;;;;;;6.80;2.08;;;29.20;99.90;;;;;;5209692;28;20038;-77
2022/07/06 11:25:16;;;;;;;3.95;2.08;;;29.40;99.90;;;;;;5208422;28;20064;-77
2022/07/06 11:27:47;;;;;;;4.13;2.00;;;29.10;99.90;;;;;;5209451;28;20096;-78
2022/07/06 11:30:20;;;;;;;6.22;1.90;;;29.50;99.90;;;;;;5209376;28;20026;-76
2022/07/06 11:32:51;;;;;;;6.32;2.15;;;28.80;99.90;;;;;;5209420;28;20083;-76
2022/07/06 11:35:22;;;;;;;7.57;2.20;;;29.10;99.90;;;;;;5209372;28;20026;-72
2022/07/06 11:37:53;;;;;;;5.68;2.00;;;29.40;99.90;;;;;;5208854;28;20021;-77
2022/07/06 11:40:24;;;;;;;7.10;2.20;;;29.20;99.90;;;;;;5209306;28;20033;-78
2022/07/06 11:42:55;;;;;;;7.97;2.33;;;29.20;99.90;;;;;;5209240;28;20484;-77
2022/07/06 11:45:27;;;;;;;6.68;2.10;;;29.00;99.90;;;;;;5209138;28;20128;-77
2022/07/06 11:48:14;;;;;;;3.67;2.10;;;28.90;99.90;;;;;;5208922;28;20026;-74
2022/07/06 11:51:03;;;;;;;6.35;2.33;;;29.40;99.90;;;;;;5208959;28;20116;-78
2022/07/06 11:53:34;;;;;;;5.10;1.92;;;29.40;99.90;;;;;;5209027;28;20380;-78
2022/07/06 11:56:05;;;;;;;7.15;1.80;;;29.70;99.90;;;;;;5208933;28;20116;-77
2022/07/06 11:58:38;;;;;;;5.55;2.00;;;29.10;99.90;;;;;;5208816;28;20041;-77
2022/07/06 12:01:11;;;;;;;7.05;2.40;;;29.30;99.90;;;;;;5208972;28;20021;-78
2022/07/06 12:03:43;;;;;;;2.97;1.90;;;29.40;99.90;;;;;;5208998;28;20480;-77
2022/07/06 12:06:17;;;;;;;6.20;2.17;;;29.40;99.90;;;;;;5208580;28;20460;-78
2022/07/06 12:08:56;;;;;;;12.65;2.42;;;29.50;99.90;;;;;;5208620;28;20045;-75
2022/07/06 12:11:31;;;;;;;4.80;2.40;;;29.50;99.90;;;;;;5208784;28;20025;-78
2022/07/06 12:14:21;;;;;;;4.50;2.13;;;30.20;99.90;;;;;;5208619;28;20033;-72
2022/07/06 12:16:52;;;;;;;3.00;1.70;;;29.20;99.90;;;;;;5208615;28;20100;-78
2022/07/06 12:19:23;;;;;;;11.93;5.13;;;29.20;99.90;;;;;;5208040;28;20145;-77
2022/07/06 12:21:54;;;;;;;4.60;2.08;;;29.80;99.90;;;;;;5208589;28;20018;-71
2022/07/06 12:24:32;;;;;;;6.45;2.42;;;29.00;99.90;;;;;;5208256;28;20453;-76
2022/07/06 12:27:20;;;;;;;4.25;1.98;;;29.40;99.90;;;;;;5208461;28;20017;-77
2022/07/06 12:29:51;;;;;;;10.45;2.20;;;29.40;99.90;;;;;;5208411;28;20051;-77
2022/07/06 12:32:22;;;;;;;8.25;2.38;;;29.40;99.90;;;;;;5208261;28;20092;-72
2022/07/06 12:35:07;;;;;;;4.95;1.88;;;29.50;99.90;;;;;;5208250;28;20117;-72
2022/07/06 12:37:54;;;;;;;5.60;2.17;;;29.00;99.90;;;;;;5208249;28;20419;-73
2022/07/06 12:40:27;;;;;;;6.55;2.08;;;29.20;99.90;;;;;;5208065;28;20424;-77
2022/07/06 12:42:58;;;;;;;4.50;2.47;;;29.40;99.90;;;;;;5208154;28;20021;-76
2022/07/06 12:45:30;;;;;;;10.10;2.92;;;29.00;99.90;;;;;;5207953;28;20083;-76
2022/07/06 12:48:04;;;;;;;4.20;2.22;;;28.80;99.90;;;;;;5207406;28;20493;-73
2022/07/06 12:50:41;;;;;;;2.53;2.00;;;29.30;99.90;;;;;;5207335;28;20124;-71
2022/07/06 12:53:25;;;;;;;3.50;1.95;;;29.00;99.90;;;;;;5207972;28;20033;-73
2022/07/06 12:56:09;;;;;;;6.60;2.10;;;28.90;99.90;;;;;;5207745;28;20052;-76
2022/07/06 12:58:53;;;;;;;5.05;2.22;;;29.00;99.90;;;;;;5207598;28;20101;-76
2022/07/06 13:01:24;;;;;;;6.45;2.30;;;29.00;99.90;;;;;;5207602;28;20037;-71
2022/07/06 13:03:59;;;;;;;4.78;2.08;;;29.00;99.90;;;;;;5207682;28;20488;-72
2022/07/06 13:06:31;;;;;;;6.30;2.30;;;29.30;99.90;;;;;;5207580;28;20026;-71
2022/07/06 13:09:02;;;;;;;8.10;2.15;;;29.10;99.90;;;;;;5207492;28;20033;-74
2022/07/06 13:11:33;;;;;;;4.10;1.73;;;29.00;99.90;;;;;;5206300;28;20036;-71
2022/07/06 13:14:04;;;;;;;5.50;2.10;;;29.20;99.90;;;;;;5207464;28;20025;-70
2022/07/06 13:16:35;;;;;;;5.05;1.88;;;29.30;99.90;;;;;;5207362;28;20075;-70